Nearby METAR Reports

 

EGAA - Belfast International Airport
Distance from station: W 19.6km
Updated: 20/09/2018 09:20
Few Clouds
Few Clouds
 Wind from SSW
Wind: SSW 13 km/h
Temperature: 8°C
Wind Chill: 6°C
Dew Point: 6°C
Humidity: 87%
Barometer: 1006 hPa
Clouds: Few Clouds
Visibility: 10 km
Cloud details: Few Clouds 366 m
2018/09/20 08:20 EGAA 200820Z 20007KT 9999 FEW012 08/06 Q1006
EGAC - George Best Belfast City Airport
Distance from station: SE 6.4km
Updated: 20/09/2018 09:20
Clear
Clear
 Wind from SSW
Wind: SSW 15 km/h
Temperature: 9°C
Wind Chill: 7°C
Dew Point: 6°C
Humidity: 82%
Barometer: 1006 hPa
Clouds: Clear
Visibility: 10 km
2018/09/20 08:20 EGAC 200820Z AUTO 20008KT 9999 NCD 09/06 Q1006